KMDT

Harrisburg International Airport

Harrisburg, Pennsylvania, USA
METAR KMDT 201512Z 09003KT 4SM BR OVC004 10/09 A3034 RMK AO2 T01000089
Observed Flight Rules
Feb-20 @ 15:12 UTC (2 hours ago) Instrument Flight Rules
Wind Visibility Clouds Conditions
90° at 3 knots 4 miles
  • Overcast at 400' AGL
  • Mist
Temperatures Readings
Current 10°C / 50°F
Dewpoint 9°C / 48°F
Humidity 94%
Altimeter 30.34" Hg
Pressure 1027 hPa
Elevation 95
METAR KMDT 201512Z 09003KT 4SM BR OVC004 10/09 A3034 RMK AO2 T01000089
Observed Flight Rules
Feb-20 @ 15:12 UTC
(2 hours ago)
LIFR
Wind Visibility
90° at 3 knots 4 miles
Clouds
  • Overcast at 400' AGL
Conditions
  • Mist
Temperature Dewpoint
10°C / 50°F 9°C / 48°F
Humidity Altimeter Pressure
94% 30.34" Hg 1027 hPa